Flight Track Log - Related Links

Times and Time Zones

All times are in EDT time to prevent confusion due to time zone crossing. See the UAL1206 flight status page for this flight to view local times or setup timezone preferences in your user account.

Time Position Orientation Groundspeed Altitude Reporting Facility
EDT Latitude Longitude Course Direction KTS MPH feet Rate Location/Type
Mon 12:52:29 PM 41.9333 -87.9167 173° South 186 214 2,000  Level Chicago TRACON
Mon 12:54:24 PM 41.8069 -87.9108 178° South 252 290 6,900 2,678 Climbing Chicago Center
Mon 12:55:00 PM 41.4899 -87.6190 167° South  Level Estimated
Mon 12:55:26 PM 41.7331 -87.9533 203° Southwest 290 334 9,900  Level Chicago Center
Mon 12:56:00 PM 41.3668 -87.5478 180° South  Level Estimated
Mon 12:56:28 PM 41.6344 -87.9081 161° South 343 395 12,600  Level Chicago Center
Mon 12:57:00 PM 41.2437 -87.4768 173° South  Level Estimated
Mon 12:57:30 PM 41.5461 -87.8303 147° Southeast 375 432 15,300  Level Chicago Center
Mon 12:58:32 PM 41.4508 -87.7506 148° Southeast 396 456 17,800 2,177 Climbing Chicago Center
Mon 12:59:34 PM 41.3353 -87.7253 171° South 423 487 19,800 2,032 Climbing Chicago Center
Mon 01:00:36 PM 41.2142 -87.7264 180° South 431 496 22,000 1,935 Climbing Chicago Center
Mon 01:01:38 PM 41.0869 -87.7097 174° South 454 522 23,800 1,645 Climbing Chicago Center
Mon 01:02:40 PM 40.9564 -87.6908 174° South 470 541 25,400 1,742 Climbing Chicago Center
Mon 01:03:42 PM 40.7942 -87.6700 174° South 486 559 27,400 1,645 Climbing Chicago Center
Mon 01:04:44 PM 40.6564 -87.6514 174° South 497 572 28,800 1,344 Climbing Chicago Center
Mon 01:05:47 PM 40.5150 -87.6319 174° South 508 585 30,200 1,200 Climbing Chicago Center
Mon 01:06:49 PM 40.3717 -87.6131 174° South 517 595 31,300 1,016 Climbing Chicago Center
Mon 01:07:51 PM 40.2314 -87.5533 162° South 539 620 32,300 1,210 Climbing Chicago Center
Mon 01:08:53 PM 40.0781 -87.4569 154° Southeast 532 612 33,800 1,355 Climbing Chicago Center
Mon 01:09:55 PM 39.9389 -87.3889 159° South 537 618 35,100 1,255 Climbing Chicago Center
Mon 01:10:43 PM 39.8272 -87.3339 159° South 531 611 36,100 1,036 Climbing Indianapolis Center
Mon 01:11:45 PM 39.6928 -87.2650 158° South 525 604 37,000 435 Climbing Indianapolis Center
Mon 01:12:47 PM 39.5572 -87.1958 159° South 527 606 37,000  Level Indianapolis Center
Mon 01:13:48 PM 39.4217 -87.1272 159° South 527 606 37,000  Level Indianapolis Center
Mon 01:14:50 PM 39.2575 -87.0453 159° South 530 610 37,000  Level Indianapolis Center
Mon 01:15:52 PM 39.1269 -86.9789 158° South 530 610 37,000  Level Indianapolis Center
Mon 01:16:54 PM 38.9889 -86.9103 159° South 528 608 37,000  Level Indianapolis Center
Mon 01:17:55 PM 38.8506 -86.8419 159° South 528 608 37,000  Level Indianapolis Center
Mon 01:18:57 PM 38.7119 -86.7728 159° South 528 608 37,000  Level Indianapolis Center
Mon 01:19:59 PM 38.5753 -86.7042 159° South 522 601 37,000  Level Indianapolis Center
Mon 01:21:01 PM 38.4381 -86.6369 159° South 520 598 37,000  Level Indianapolis Center
Mon 01:22:02 PM 38.3017 -86.5711 159° South 517 595 37,000  Level Indianapolis Center
Mon 01:23:04 PM 38.1394 -86.4928 159° South 514 592 37,000  Level Indianapolis Center
Mon 01:24:06 PM 38.0039 -86.4261 159° South 516 594 37,000  Level Indianapolis Center
Mon 01:25:08 PM 37.8686 -86.3617 159° South 515 593 37,000  Level Indianapolis Center
Mon 01:26:09 PM 37.7369 -86.2983 159° South 515 593 37,000  Level Indianapolis Center
Mon 01:27:11 PM 37.6003 -86.2319 159° South 520 598 37,000  Level Indianapolis Center
Mon 01:27:44 PM 37.5289 -86.1992 160° South 516 594 37,000  Level Memphis Center
Mon 01:28:44 PM 37.3933 -86.1333 159° South 522 601 37,000  Level Memphis Center
Mon 01:29:15 PM 37.3256 -86.1025 160° South 518 596 37,000  Level Indianapolis Center
Mon 01:30:17 PM 37.1944 -86.0406 159° South 511 588 37,000  Level Indianapolis Center
Mon 01:31:18 PM 37.0575 -85.9764 159° South 520 598 37,000  Level Indianapolis Center
Mon 01:31:44 PM 36.9931 -85.9467 160° South 514 592 37,000  Level Memphis Center
Mon 01:32:44 PM 36.8469 -85.8794 160° South 514 592 37,000  Level Memphis Center
Mon 01:33:44 PM 36.7133 -85.8144 159° South 514 592 37,000  Level Memphis Center
Mon 01:34:44 PM 36.5797 -85.7547 160° South 514 592 37,000  Level Memphis Center
Mon 01:35:44 PM 36.4461 -85.6928 160° South 514 592 37,000  Level Memphis Center
Mon 01:36:44 PM 36.3125 -85.6308 160° South 514 592 37,000  Level Memphis Center
Mon 01:37:44 PM 36.1786 -85.5692 160° South 514 592 37,000  Level Memphis Center
Mon 01:39:33 PM 35.9414 -85.4592 159° South 514 592 37,000  Level Indianapolis Center
Mon 01:40:07 PM 35.8628 -85.4250 161° South 525 604 37,000  Level Atlanta Center
Mon 01:41:07 PM 35.7258 -85.3664 161° South 525 604 37,000  Level Atlanta Center
Mon 01:42:07 PM 35.5928 -85.3056 160° South 520 598 37,000  Level Atlanta Center
Mon 01:43:07 PM 35.4578 -85.2447 160° South 515 593 37,000  Level Atlanta Center
Mon 01:44:07 PM 35.3292 -85.1817 158° South 510 587 37,000  Level Atlanta Center
Mon 01:45:07 PM 35.1961 -85.1242 161° South 510 587 37,000  Level Atlanta Center
Mon 01:46:07 PM 35.0672 -85.0664 160° South 505 581 37,000  Level Atlanta Center
Mon 01:47:07 PM 34.9383 -85.0117 161° South 505 581 37,000  Level Atlanta Center
Mon 01:48:07 PM 34.8114 -84.9547 160° South 498 573 37,000  Level Atlanta Center
Mon 01:49:07 PM 34.6844 -84.8950 159° South 493 567 37,000  Level Atlanta Center
Mon 01:50:07 PM 34.5597 -84.8408 160° South 485 558 37,000  Level Atlanta Center
Mon 01:51:07 PM 34.4328 -84.7842 160° South 485 558 37,000  Level Atlanta Center
Mon 01:52:07 PM 34.3203 -84.7356 160° South 480 552 37,000  Level Atlanta Center
Mon 01:53:07 PM 34.1953 -84.6817 160° South 480 552 37,000  Level Atlanta Center
Mon 01:54:07 PM 34.0558 -84.6206 160° South 485 558 37,000  Level Atlanta Center
Mon 01:55:07 PM 33.9308 -84.5697 161° South 485 558 37,000  Level Atlanta Center
Mon 01:56:07 PM 33.7997 -84.5139 161° South 485 558 37,000  Level Atlanta Center
Mon 01:57:07 PM 33.6786 -84.4608 160° South 483 556 37,000 -200 Level Atlanta Center
Mon 01:58:07 PM 33.5558 -84.4078 160° South 477 549 36,600 -700 Descending Atlanta Center
Mon 01:59:07 PM 33.4306 -84.3550 161° South 477 549 35,600 -1,000 Descending Atlanta Center
Mon 02:00:07 PM 33.3222 -84.3097 161° South 477 549 34,600 -1,450 Descending Atlanta Center
Mon 02:01:07 PM 33.1886 -84.2572 162° South 488 562 32,700 -1,450 Descending Atlanta Center
Mon 02:02:07 PM 33.0572 -84.2000 160° South 502 578 31,700 -950 Descending Atlanta Center
Mon 02:03:07 PM 32.9217 -84.1403 160° South 512 589 30,800 -950 Descending Atlanta Center
Mon 02:04:07 PM 32.7839 -84.0858 162° South 512 589 29,800 -900 Descending Atlanta Center
Mon 02:05:07 PM 32.6503 -84.0314 161° South 512 589 29,000 -400 Descending Atlanta Center
Mon 02:06:07 PM 32.5125 -83.9772 162° South 517 595 29,000  Level Atlanta Center
Mon 02:07:07 PM 32.3664 -83.9158 160° South 517 595 29,000  Level Atlanta Center
Mon 02:08:07 PM 32.2328 -83.8619 161° South 517 595 29,000  Level Atlanta Center
Mon 02:09:07 PM 32.1011 -83.8058 160° South 507 583 29,000  Level Atlanta Center
Mon 02:09:27 PM 32.0444 -83.7872 164° South 503 579 29,000  Level Jacksonville Center
Mon 02:10:28 PM 31.9278 -83.7394 161° South 484 557 29,000  Level Jacksonville Center
Mon 02:11:27 PM 31.8111 -83.6872 159° South 484 557 29,000  Level Jacksonville Center
Mon 02:12:27 PM 31.6842 -83.6372 161° South 484 557 29,000 -50 Level Jacksonville Center
Mon 02:13:27 PM 31.5531 -83.5558 152° Southeast 484 557 28,900  Descending Jacksonville Center
Mon 02:14:28 PM 31.4303 -83.4744 151° Southeast 490 564 29,000  Climbing Jacksonville Center
Mon 02:15:27 PM 31.3303 -83.3911 145° Southeast 490 564 28,900 -50 Descending Jacksonville Center
Mon 02:16:27 PM 31.2033 -83.2983 148° Southeast 496 571 28,900 50 Level Jacksonville Center
Mon 02:17:27 PM 31.1033 -83.2372 152° Southeast 496 571 29,000  Climbing Jacksonville Center
Mon 02:18:27 PM 30.9636 -83.1347 148° Southeast 496 571 28,900 -100 Descending Jacksonville Center
Mon 02:19:27 PM 30.8447 -83.0497 148° Southeast 501 577 28,800 -545 Descending Jacksonville Center
Mon 02:20:28 PM 30.7258 -82.9700 150° Southeast 496 571 27,800 -942 Descending Jacksonville Center
Mon 02:21:28 PM 30.6047 -82.8903 150° Southeast 496 571 26,900 -950 Descending Jacksonville Center
Mon 02:22:28 PM 30.4900 -82.8058 148° Southeast 496 571 25,900 -950 Descending Jacksonville Center
Mon 02:23:28 PM 30.3769 -82.7289 150° Southeast 490 564 25,000 -450 Descending Jacksonville Center
Mon 02:24:28 PM 30.2642 -82.6519 149° Southeast 484 557 25,000  Level Jacksonville Center
Mon 02:25:28 PM 30.1472 -82.5781 151° Southeast 479 551 25,000  Level Jacksonville Center
Mon 02:26:28 PM 30.0447 -82.5039 148° Southeast 479 551 25,000  Level Jacksonville Center
Mon 02:27:28 PM 29.9150 -82.4300 154° Southeast 479 551 25,000  Level Jacksonville Center
Mon 02:28:28 PM 29.7936 -82.3733 158° South 467 537 25,000 -50 Level Jacksonville Center
Mon 02:29:28 PM 29.6722 -82.3142 157° South 467 537 24,900 -450 Descending Jacksonville Center
Mon 02:30:28 PM 29.5531 -82.2553 157° South 472 543 24,100 -1,500 Descending Jacksonville Center
Mon 02:31:28 PM 29.4442 -82.2011 157° South 450 518 21,900 -2,100 Descending Jacksonville Center
Mon 02:32:28 PM 29.3394 -82.1517 158° South 432 497 19,900 -1,950 Descending Jacksonville Center
Mon 02:33:28 PM 29.2347 -82.1025 158° South 411 473 18,000 -1,950 Descending Jacksonville Center
Mon 02:34:28 PM 29.1364 -82.0558 157° South 399 459 16,000 -2,000 Descending Jacksonville Center
Mon 02:35:28 PM 29.0381 -82.0067 156° South 393 452 14,000 -2,000 Descending Jacksonville Center
Mon 02:36:28 PM 28.9439 -81.9625 158° South 381 438 12,000 -1,500 Descending Jacksonville Center
Mon 02:37:28 PM 28.8619 -81.8944 144° Southeast 364 419 11,000 -714 Descending Jacksonville Center
Mon 02:37:52 PM 28.8333 -81.8500 126° Southeast 362 417 11,000 -500 Level Orlando TRACON
Mon 02:38:52 PM 28.7833 -81.7667 124° Southeast 336 387 10,300 -1,000 Descending Orlando TRACON
Mon 02:39:52 PM 28.7333 -81.6833 124° Southeast 327 376 9,000 -650 Descending Orlando TRACON
Mon 02:40:52 PM 28.6833 -81.6000 124° Southeast 309 356 9,000  Level Orlando TRACON
Mon 02:41:53 PM 28.6500 -81.5167 114° Southeast 311 358 9,000  Level Orlando TRACON
Mon 02:42:47 PM 28.6000 -81.4500 130° Southeast 276 318 9,000 -286 Level Orlando TRACON
Mon 02:43:59 PM 28.5167 -81.4167 161° South 254 292 8,400 -667 Descending Orlando TRACON
Mon 02:44:53 PM 28.4667 -81.4167 180° South 247 284 7,600 -1,148 Descending Orlando TRACON
Mon 02:45:54 PM 28.3833 -81.4167 180° South 245 282 6,200 -1,240 Descending Orlando TRACON
Mon 02:46:54 PM 28.3167 -81.4167 180° South 250 288 5,100 -1,200 Descending Orlando TRACON
Mon 02:47:54 PM 28.2667 -81.4000 164° South 254 292 3,800 -1,300 Descending Orlando TRACON

Login

Don't have an account? Register now (free) for customized features, flight alerts, and more!